Weather History for KCGI - January, 2014

Change the Weather History Date:

Sunday, January 5, 2014

  Actual Average Record
Temperature  
Mean Temperature 23 °F 33 °F  
Max Temperature 38 °F 42 °F 65 °F (1998)
Min Temperature 8 °F 24 °F 4 °F (1972)
Degree Days  
Heating Degree Days 42 32  
Month to date heating degree days 185 160  
Since 1 July heating degree days 2052 1911  
Cooling Degree Days 0 0  
Month to date cooling degree days 0 0  
Year to date cooling degree days 0 0  
Moisture  
Dew Point 25 °F    
Average Humidity 79    
Maximum Humidity 100    
Minimum Humidity 58    
Precipitation  
Precipitation 0.91 in 0.12 in 1.24 in (2005)
Month to date precipitation 0.91 0.60  
Year to date precipitation 0.91 0.60  
Sea Level Pressure  
Sea Level Pressure 29.86 in    
Wind  
Wind Speed 16 mph (North)    
Max Wind Speed 35 mph    
Max Gust Speed 42 mph    
Visibility 4 miles    
Events Fog , Rain , Snow    
T = Trace of Precipitation, MM = Missing Value Source: NWS Daily Summary

Daily Weather History Graph

Daily Weather History Graph

Search for Another Location

Airport or City:

Trip Planner

Search our weather history database for the weather conditions in past years. The results will help you decide how hot, cold, wet, or windy it might be!

Date:

Astronomy

Jan. 05, 2014 Rise Set
Actual Time 7:12 AM CST 4:55 PM CST
Civil Twilight 6:43 AM CST 5:24 PM CST
Nautical Twilight 6:11 AM CST 5:56 PM CST
Astronomical Twilight 5:39 AM CST 6:28 PM CST
Moon 10:01 AM CST (1/5) 10:15 PM CST (1/5)
Length of Visible Light 10h 40m
Length of Day
9h 42m
Waxing Crescent, 25% of the Moon is Illuminated
Jan 5
Waxing Crescent
Jan 7
First Quarter
Jan 15
Full
Jan 23
Last Quarter
Jan 30
New

Hourly Weather History & Observations

Time (CST) Temp. Windchill Dew Point Humidity Pressure Visibility Wind Dir Wind Speed Gust Speed Precip Events Conditions
12:53 AM 37.0 °F 33.3 °F 30.0 °F 76% 29.93 in 10.0 mi NNE 4.6 mph - N/A   Overcast
1:46 AM 36.0 °F 33.3 °F 33.1 °F 89% 29.92 in 7.0 mi NNE 3.5 mph - 0.00 in   Overcast
1:53 AM 36.0 °F 33.3 °F 33.1 °F 89% 29.92 in 9.0 mi ENE 3.5 mph - 0.00 in   Overcast
2:53 AM 35.1 °F 28.6 °F 33.1 °F 92% 29.89 in 4.0 mi NE 8.1 mph - 0.00 in   Overcast
3:32 AM 35.1 °F 31.0 °F 34.0 °F 96% 29.89 in 4.0 mi NNW 4.6 mph - 0.01 in Rain Light Rain
3:43 AM 35.1 °F 29.3 °F 34.0 °F 96% 29.88 in 2.5 mi NNE 6.9 mph - 0.02 in Rain Rain
3:53 AM 36.0 °F 29.6 °F 34.0 °F 93% 29.88 in 2.5 mi NNE 8.1 mph - 0.02 in Rain Rain
4:31 AM 36.0 °F 29.0 °F 35.1 °F 97% 29.86 in 4.0 mi NE 9.2 mph - 0.05 in Rain Light Rain
4:39 AM 36.0 °F 28.5 °F 35.1 °F 97% 29.85 in 3.0 mi NE 10.4 mph - 0.06 in Rain Rain
4:53 AM 36.0 °F 28.5 °F 35.1 °F 97% 29.85 in 3.0 mi NE 10.4 mph - 0.07 in Rain Light Rain
5:12 AM 36.0 °F 28.5 °F 34.0 °F 93% 29.84 in 2.0 mi ENE 10.4 mph - 0.00 in   Overcast
5:17 AM 36.0 °F 29.6 °F 34.0 °F 93% 29.83 in 1.8 mi ENE 8.1 mph - 0.03 in Rain Rain
5:25 AM 36.0 °F 28.0 °F 34.0 °F 93% 29.83 in 2.5 mi ENE 11.5 mph - 0.03 in Rain Light Rain
5:33 AM 36.0 °F 29.0 °F 34.0 °F 93% 29.82 in 3.0 mi ENE 9.2 mph - 0.03 in   Overcast
5:53 AM 35.1 °F 29.3 °F 34.0 °F 96% 29.81 in 4.0 mi ENE 6.9 mph - 0.03 in   Overcast
6:00 AM 35.1 °F 28.6 °F 34.0 °F 96% 29.81 in 4.0 mi NE 8.1 mph - 0.00 in   Overcast
6:08 AM 35.1 °F 28.6 °F 34.0 °F 96% 29.80 in 3.0 mi ENE 8.1 mph - 0.00 in   Overcast
6:16 AM 35.1 °F 29.3 °F 34.0 °F 96% 29.80 in 3.0 mi East 6.9 mph - 0.00 in   Overcast
6:30 AM 36.0 °F 31.1 °F 35.1 °F 97% 29.79 in 3.0 mi ENE 5.8 mph - 0.00 in   Overcast
6:37 AM 36.0 °F 31.1 °F 35.1 °F 97% 29.79 in 2.5 mi ENE 5.8 mph - 0.00 in   Overcast
6:41 AM 36.0 °F 32.1 °F 35.1 °F 97% 29.79 in 3.0 mi ENE 4.6 mph - 0.00 in   Overcast
6:53 AM 36.0 °F 33.3 °F 35.1 °F 97% 29.80 in 3.0 mi East 3.5 mph - 0.00 in   Overcast
7:09 AM 36.0 °F 31.1 °F 35.1 °F 97% 29.78 in 2.0 mi ENE 5.8 mph - 0.04 in Rain Heavy Rain
7:49 AM 35.6 °F 31.7 °F 35.6 °F 100% 29.77 in 2.5 mi NNE 4.6 mph - 0.16 in Rain Rain
7:53 AM 37.0 °F 32.4 °F 36.0 °F 96% 29.78 in 2.5 mi NNE 5.8 mph - 0.16 in Rain Light Rain
8:07 AM 37.0 °F 33.3 °F 36.0 °F 96% 29.77 in 2.0 mi ENE 4.6 mph - 0.03 in Rain Heavy Rain
8:24 AM 37.0 °F 33.3 °F 36.0 °F 96% 29.76 in 1.5 mi NNE 4.6 mph - 0.11 in Rain Heavy Rain
8:32 AM 37.0 °F 31.6 °F 36.0 °F 96% 29.76 in 1.8 mi NNE 6.9 mph - 0.13 in Rain Rain
8:39 AM 37.0 °F 33.3 °F 36.0 °F 96% 29.77 in 2.0 mi North 4.6 mph - 0.16 in Rain Heavy Rain
8:46 AM 37.0 °F 31.6 °F 36.0 °F 96% 29.77 in 1.8 mi NNW 6.9 mph - 0.18 in Rain Heavy Rain
8:53 AM 37.0 °F 33.3 °F 36.0 °F 96% 29.76 in 1.8 mi NNW 4.6 mph - 0.22 in Rain Heavy Rain
9:23 AM 35.1 °F 27.9 °F 34.0 °F 96% 29.75 in 2.5 mi NNW 9.2 mph - 0.14 in Rain Heavy Rain
9:48 AM 33.8 °F 22.8 °F 33.8 °F 100% 29.75 in 2.5 mi North 18.4 mph 24.2 mph 0.26 in Rain Heavy Rain
9:53 AM 34.0 °F 23.8 °F 33.1 °F 96% 29.77 in 2.5 mi NNW 16.1 mph 24.2 mph 0.29 in Rain Heavy Rain
10:02 AM 34.0 °F 23.0 °F 32.0 °F 92% 29.75 in 3.0 mi North 18.4 mph 27.6 mph 0.03 in Rain Heavy Rain
10:10 AM 33.1 °F 23.0 °F 30.9 °F 92% 29.75 in 4.0 mi NNW 15.0 mph - 0.05 in Rain Rain
10:28 AM 32.0 °F 22.5 °F 30.0 °F 92% 29.75 in 6.0 mi North 12.7 mph 27.6 mph 0.06 in Snow Light Snow
10:36 AM 30.9 °F 19.1 °F 28.9 °F 92% 29.75 in 3.0 mi NNW 18.4 mph 21.9 mph 0.06 in Rain Light Freezing Rain
10:44 AM 30.9 °F 18.7 °F 28.0 °F 89% 29.75 in 2.5 mi NNW 19.6 mph - 0.07 in Rain Light Freezing Rain
10:53 AM 30.0 °F 20.0 °F 28.0 °F 92% 29.76 in 3.0 mi NNW 12.7 mph - 0.07 in Rain Light Freezing Rain
11:13 AM 28.9 °F 16.5 °F 26.1 °F 89% 29.75 in 2.5 mi North 18.4 mph - 0.00 in Rain Light Freezing Rain
11:31 AM 28.9 °F 17.7 °F 26.1 °F 89% 29.74 in 2.5 mi North 15.0 mph - 0.00 in Rain Light Freezing Rain
11:46 AM 28.0 °F 15.3 °F 26.1 °F 92% 29.74 in 2.0 mi NNW 18.4 mph - 0.00 in Rain Light Freezing Rain
11:53 AM 28.0 °F 15.3 °F 26.1 °F 92% 29.75 in 2.0 mi NNW 18.4 mph - 0.01 in Rain Light Freezing Rain
12:06 PM 28.0 °F 15.7 °F 25.0 °F 88% 29.74 in 3.0 mi NNW 17.3 mph 26.5 mph 0.01 in Rain Light Freezing Rain
12:17 PM 27.0 °F 13.5 °F 24.1 °F 89% 29.74 in 3.0 mi NNW 19.6 mph 24.2 mph 0.02 in Rain Light Freezing Rain
12:40 PM 27.0 °F 12.2 °F 24.1 °F 89% 29.74 in 3.0 mi NNW 24.2 mph 31.1 mph 0.03 in Rain Light Freezing Rain
12:49 PM 26.6 °F 12.4 °F 24.8 °F 93% 29.74 in 1.8 mi NNW 21.9 mph 31.1 mph 0.03 in Snow Light Snow
12:50 PM 26.1 °F 11.6 °F 24.1 °F 92% 29.75 in 1.8 mi NNW 21.9 mph 31.1 mph 0.04 in Snow Light Snow
1:09 PM 25.0 °F 8.1 °F 21.0 °F 85% 29.76 in 2.5 mi NNW 29.9 mph 38.0 mph 0.00 in   Overcast
1:19 PM 25.0 °F 10.2 °F 21.0 °F 85% 29.77 in 3.0 mi NNW 21.9 mph 36.8 mph 0.00 in   Overcast
1:26 PM 25.0 °F 9.9 °F 21.0 °F 85% 29.78 in 2.0 mi NNW 23.0 mph 32.2 mph 0.00 in   Overcast
1:28 PM 24.1 °F 9.4 °F 21.0 °F 88% 29.78 in 1.8 mi NNW 20.7 mph 35.7 mph 0.00 in   Overcast
1:53 PM 23.0 °F 8.3 °F 19.9 °F 88% 29.81 in 1.0 mi NNW 19.6 mph 35.7 mph 0.00 in Snow Light Snow
2:05 PM 23.0 °F 6.6 °F 19.9 °F 88% 29.82 in 0.5 mi NNW 25.3 mph 39.1 mph 0.00 in Fog , Snow Snow
2:21 PM 21.9 °F 5.8 °F 19.0 °F 89% 29.82 in 1.0 mi NNW 23.0 mph 32.2 mph 0.00 in Snow Light Snow
2:53 PM 21.9 °F 7.3 °F 18.0 °F 85% 29.84 in 1.2 mi NNW 18.4 mph 31.1 mph 0.00 in Snow Light Snow
3:27 PM 21.0 °F 6.6 °F 17.1 °F 85% 29.87 in 1.8 mi NNW 17.3 mph 35.7 mph 0.00 in Snow Light Snow
3:35 PM 21.0 °F 5.4 °F 17.1 °F 85% 29.89 in 2.5 mi NNW 20.7 mph 32.2 mph 0.00 in Snow Light Snow
3:41 PM 21.0 °F 7.1 °F 17.1 °F 85% 29.89 in 3.0 mi NNW 16.1 mph 32.2 mph 0.00 in Snow Light Snow
3:53 PM 21.0 °F 4.3 °F 16.0 °F 81% 29.91 in 4.0 mi NNW 24.2 mph 35.7 mph 0.00 in Snow Light Snow
4:01 PM 21.0 °F 5.7 °F 17.1 °F 85% 29.92 in 1.8 mi NNW 19.6 mph 34.5 mph 0.00 in Snow Light Snow
4:44 PM 19.0 °F 2.7 °F 15.1 °F 85% 29.97 in 2.5 mi NW 20.7 mph 32.2 mph 0.00 in Snow Light Snow
4:53 PM 19.0 °F 2.7 °F 14.0 °F 81% 29.99 in 3.0 mi NNW 20.7 mph 31.1 mph 0.00 in Snow Light Snow
5:14 PM 19.0 °F -0.5 °F 12.9 °F 77% 30.01 in 2.5 mi NNW 32.2 mph 42.6 mph 0.00 in Snow Light Snow
5:19 PM 18.0 °F 1.3 °F 12.9 °F 81% 30.01 in 3.0 mi NNW 20.7 mph 42.6 mph 0.00 in   Overcast
5:28 PM 18.0 °F 1.7 °F 12.9 °F 81% 30.02 in 4.0 mi NW 19.6 mph 32.2 mph 0.00 in Snow Light Snow
5:43 PM 18.0 °F -0.5 °F 12.9 °F 81% 30.02 in 6.0 mi NNW 26.5 mph 33.4 mph 0.00 in Snow Light Snow
5:53 PM 18.0 °F 1.3 °F 12.9 °F 81% 30.04 in 7.0 mi NNW 20.7 mph 34.5 mph 0.00 in Snow Light Snow
6:53 PM 17.1 °F -2.0 °F 10.9 °F 77% 30.10 in 6.0 mi NW 27.6 mph 35.7 mph 0.00 in Snow Light Snow
7:09 PM 16.0 °F -2.5 °F 10.0 °F 77% 30.11 in 8.0 mi NNW 24.2 mph 38.0 mph 0.00 in   Overcast
7:22 PM 16.0 °F -2.1 °F 10.0 °F 77% 30.13 in 7.0 mi NNW 23.0 mph 35.7 mph 0.00 in   Mostly Cloudy
7:53 PM 15.1 °F -3.7 °F 9.0 °F 77% 30.17 in 10.0 mi NNW 24.2 mph 35.7 mph 0.00 in   Mostly Cloudy
8:53 PM 14.0 °F -3.4 °F 6.1 °F 71% 30.23 in 10.0 mi NNW 19.6 mph 32.2 mph 0.00 in   Scattered Clouds
9:53 PM 12.0 °F -7.3 °F -0.0 °F 59% 30.28 in 10.0 mi NNW 23.0 mph 31.1 mph N/A   Clear
10:53 PM 10.0 °F -8.1 °F -0.9 °F 61% 30.30 in 10.0 mi NNW 18.4 mph 29.9 mph N/A   Clear
11:53 PM 8.1 °F -10.7 °F -2.0 °F 64% 30.33 in 10.0 mi NW 18.4 mph 29.9 mph N/A   Clear